sensor_id;sensor_type;location;lat;lon;timestamp;temperature;humidity
54832;DHT22;40730;53.068;6.572;2022-09-13T00:00:36;16.70;99.90
54832;DHT22;40730;53.068;6.572;2022-09-13T00:03:03;16.70;99.90
54832;DHT22;40730;53.068;6.572;2022-09-13T00:05:29;16.70;99.90
54832;DHT22;40730;53.068;6.572;2022-09-13T00:07:55;16.70;99.90
54832;DHT22;40730;53.068;6.572;2022-09-13T00:10:22;16.60;99.90
54832;DHT22;40730;53.068;6.572;2022-09-13T00:12:48;16.70;99.90
54832;DHT22;40730;53.068;6.572;2022-09-13T00:15:14;16.70;99.90
54832;DHT22;40730;53.068;6.572;2022-09-13T00:17:39;16.70;99.90
54832;DHT22;40730;53.068;6.572;2022-09-13T00:20:05;16.60;99.90
54832;DHT22;40730;53.068;6.572;2022-09-13T00:22:31;16.70;99.90
54832;DHT22;40730;53.068;6.572;2022-09-13T00:24:57;16.50;99.90
54832;DHT22;40730;53.068;6.572;2022-09-13T00:27:23;16.60;99.90
54832;DHT22;40730;53.068;6.572;2022-09-13T00:29:48;16.70;99.90
54832;DHT22;40730;53.068;6.572;2022-09-13T00:32:14;16.60;99.90
54832;DHT22;40730;53.068;6.572;2022-09-13T00:34:40;16.70;99.90
54832;DHT22;40730;53.068;6.572;2022-09-13T00:37:05;16.60;99.90
54832;DHT22;40730;53.068;6.572;2022-09-13T00:39:31;16.60;99.90
54832;DHT22;40730;53.068;6.572;2022-09-13T00:41:57;16.60;99.90
54832;DHT22;40730;53.068;6.572;2022-09-13T00:44:52;16.60;99.90
54832;DHT22;40730;53.068;6.572;2022-09-13T00:47:58;16.60;99.90
54832;DHT22;40730;53.068;6.572;2022-09-13T00:53:04;16.60;99.90
54832;DHT22;40730;53.068;6.572;2022-09-13T00:55:46;16.60;99.90
54832;DHT22;40730;53.068;6.572;2022-09-13T00:58:19;16.70;99.90
54832;DHT22;40730;53.068;6.572;2022-09-13T01:00:46;16.60;99.90
54832;DHT22;40730;53.068;6.572;2022-09-13T01:03:14;16.60;99.90
54832;DHT22;40730;53.068;6.572;2022-09-13T01:05:47;16.60;99.90
54832;DHT22;40730;53.068;6.572;2022-09-13T01:08:15;16.60;99.90
54832;DHT22;40730;53.068;6.572;2022-09-13T01:10:48;16.60;99.90
54832;DHT22;40730;53.068;6.572;2022-09-13T01:13:17;16.70;99.90
54832;DHT22;40730;53.068;6.572;2022-09-13T01:15:43;16.60;99.90
54832;DHT22;40730;53.068;6.572;2022-09-13T01:18:10;16.60;99.90
54832;DHT22;40730;53.068;6.572;2022-09-13T01:31:51;16.60;99.90
54832;DHT22;40730;53.068;6.572;2022-09-13T01:40:08;16.60;99.90
54832;DHT22;40730;53.068;6.572;2022-09-13T01:42:51;16.60;99.90
54832;DHT22;40730;53.068;6.572;2022-09-13T01:48:15;16.60;99.90
54832;DHT22;40730;53.068;6.572;2022-09-13T01:51:05;16.60;99.90
54832;DHT22;40730;53.068;6.572;2022-09-13T01:53:46;16.60;99.90
54832;DHT22;40730;53.068;6.572;2022-09-13T01:56:26;16.60;99.90
54832;DHT22;40730;53.068;6.572;2022-09-13T01:59:05;16.60;99.90
54832;DHT22;40730;53.068;6.572;2022-09-13T02:01:55;16.60;99.90
54832;DHT22;40730;53.068;6.572;2022-09-13T02:04:25;16.60;99.90
54832;DHT22;40730;53.068;6.572;2022-09-13T02:09:33;16.60;99.90
54832;DHT22;40730;53.068;6.572;2022-09-13T02:12:15;16.60;99.90
54832;DHT22;40730;53.068;6.572;2022-09-13T02:14:43;16.60;99.90
54832;DHT22;40730;53.068;6.572;2022-09-13T02:17:23;16.60;99.90
54832;DHT22;40730;53.068;6.572;2022-09-13T02:19:59;16.60;99.90
54832;DHT22;40730;53.068;6.572;2022-09-13T02:22:30;16.50;99.90
54832;DHT22;40730;53.068;6.572;2022-09-13T02:25:00;16.50;99.90
54832;DHT22;40730;53.068;6.572;2022-09-13T02:27:32;16.50;99.90
54832;DHT22;40730;53.068;6.572;2022-09-13T02:30:03;16.50;99.90
54832;DHT22;40730;53.068;6.572;2022-09-13T02:33:02;16.50;99.90
54832;DHT22;40730;53.068;6.572;2022-09-13T02:35:37;16.50;99.90
54832;DHT22;40730;53.068;6.572;2022-09-13T02:38:11;16.50;99.90
54832;DHT22;40730;53.068;6.572;2022-09-13T02:40:45;16.40;99.90
54832;DHT22;40730;53.068;6.572;2022-09-13T02:43:16;16.40;99.90
54832;DHT22;40730;53.068;6.572;2022-09-13T02:46:14;16.40;99.90
54832;DHT22;40730;53.068;6.572;2022-09-13T02:51:39;16.50;99.90
54832;DHT22;40730;53.068;6.572;2022-09-13T02:59:45;16.40;99.90
54832;DHT22;40730;53.068;6.572;2022-09-13T03:02:17;16.40;99.90
54832;DHT22;40730;53.068;6.572;2022-09-13T03:04:44;16.20;99.90
54832;DHT22;40730;53.068;6.572;2022-09-13T03:07:13;16.40;99.90
54832;DHT22;40730;53.068;6.572;2022-09-13T03:09:57;16.40;99.90
54832;DHT22;40730;53.068;6.572;2022-09-13T03:12:46;16.50;99.90
54832;DHT22;40730;53.068;6.572;2022-09-13T03:15:41;16.50;99.90
54832;DHT22;40730;53.068;6.572;2022-09-13T03:18:26;16.50;99.90
54832;DHT22;40730;53.068;6.572;2022-09-13T03:29:26;16.60;99.90
54832;DHT22;40730;53.068;6.572;2022-09-13T03:32:08;16.60;99.90
54832;DHT22;40730;53.068;6.572;2022-09-13T03:37:26;16.70;99.90
54832;DHT22;40730;53.068;6.572;2022-09-13T03:40:19;16.70;99.90
54832;DHT22;40730;53.068;6.572;2022-09-13T03:45:28;16.70;99.90
54832;DHT22;40730;53.068;6.572;2022-09-13T03:47:56;16.70;99.90
54832;DHT22;40730;53.068;6.572;2022-09-13T03:50:22;16.70;99.90
54832;DHT22;40730;53.068;6.572;2022-09-13T03:52:57;16.70;99.90
54832;DHT22;40730;53.068;6.572;2022-09-13T03:55:24;16.80;99.90
54832;DHT22;40730;53.068;6.572;2022-09-13T03:57:50;16.80;99.90
54832;DHT22;40730;53.068;6.572;2022-09-13T04:00:16;16.80;99.90
54832;DHT22;40730;53.068;6.572;2022-09-13T04:02:42;16.80;99.90
54832;DHT22;40730;53.068;6.572;2022-09-13T04:05:08;16.80;99.90
54832;DHT22;40730;53.068;6.572;2022-09-13T04:07:34;16.80;99.90
54832;DHT22;40730;53.068;6.572;2022-09-13T04:10:00;16.80;99.90
54832;DHT22;40730;53.068;6.572;2022-09-13T04:12:25;16.80;99.90
54832;DHT22;40730;53.068;6.572;2022-09-13T04:14:52;16.80;99.90
54832;DHT22;40730;53.068;6.572;2022-09-13T04:17:18;16.80;99.90
54832;DHT22;40730;53.068;6.572;2022-09-13T04:19:44;16.80;99.90
54832;DHT22;40730;53.068;6.572;2022-09-13T04:22:11;16.80;99.90
54832;DHT22;40730;53.068;6.572;2022-09-13T04:24:38;16.80;99.90
54832;DHT22;40730;53.068;6.572;2022-09-13T04:27:04;16.80;99.90
54832;DHT22;40730;53.068;6.572;2022-09-13T04:29:30;16.80;99.90
54832;DHT22;40730;53.068;6.572;2022-09-13T04:31:57;16.80;99.90
54832;DHT22;40730;53.068;6.572;2022-09-13T04:34:23;16.80;99.90
54832;DHT22;40730;53.068;6.572;2022-09-13T04:36:50;16.70;99.90
54832;DHT22;40730;53.068;6.572;2022-09-13T04:39:17;16.80;99.90
54832;DHT22;40730;53.068;6.572;2022-09-13T04:41:43;16.70;99.90
54832;DHT22;40730;53.068;6.572;2022-09-13T04:44:14;16.70;99.90
54832;DHT22;40730;53.068;6.572;2022-09-13T04:46:39;16.70;99.90
54832;DHT22;40730;53.068;6.572;2022-09-13T04:49:06;16.70;99.90
54832;DHT22;40730;53.068;6.572;2022-09-13T04:51:31;16.70;99.90
54832;DHT22;40730;53.068;6.572;2022-09-13T04:53:57;16.60;99.90
54832;DHT22;40730;53.068;6.572;2022-09-13T04:56:26;16.60;99.90
54832;DHT22;40730;53.068;6.572;2022-09-13T04:58:52;16.60;99.90
54832;DHT22;40730;53.068;6.572;2022-09-13T05:01:19;16.60;99.90
54832;DHT22;40730;53.068;6.572;2022-09-13T05:03:44;16.60;99.90
54832;DHT22;40730;53.068;6.572;2022-09-13T05:06:12;16.60;99.90
54832;DHT22;40730;53.068;6.572;2022-09-13T05:08:39;16.60;99.90
54832;DHT22;40730;53.068;6.572;2022-09-13T05:11:06;16.70;99.90
54832;DHT22;40730;53.068;6.572;2022-09-13T05:13:32;16.60;99.90
54832;DHT22;40730;53.068;6.572;2022-09-13T05:16:03;16.60;99.90
54832;DHT22;40730;53.068;6.572;2022-09-13T05:18:31;16.60;99.90
54832;DHT22;40730;53.068;6.572;2022-09-13T05:20:58;16.50;99.90
54832;DHT22;40730;53.068;6.572;2022-09-13T05:23:25;16.60;99.90
54832;DHT22;40730;53.068;6.572;2022-09-13T05:26:02;16.50;99.90
54832;DHT22;40730;53.068;6.572;2022-09-13T05:28:30;16.60;99.90
54832;DHT22;40730;53.068;6.572;2022-09-13T05:31:15;16.60;99.90
54832;DHT22;40730;53.068;6.572;2022-09-13T05:33:41;16.60;99.90
54832;DHT22;40730;53.068;6.572;2022-09-13T05:36:07;16.60;99.90
54832;DHT22;40730;53.068;6.572;2022-09-13T05:38:32;16.60;99.90
54832;DHT22;40730;53.068;6.572;2022-09-13T05:41:00;16.60;99.90
54832;DHT22;40730;53.068;6.572;2022-09-13T05:43:28;16.60;99.90
54832;DHT22;40730;53.068;6.572;2022-09-13T05:46:10;16.60;99.90
54832;DHT22;40730;53.068;6.572;2022-09-13T05:48:36;16.60;99.90
54832;DHT22;40730;53.068;6.572;2022-09-13T05:51:09;16.60;99.90
54832;DHT22;40730;53.068;6.572;2022-09-13T05:53:36;16.60;99.90
54832;DHT22;40730;53.068;6.572;2022-09-13T05:56:07;16.60;99.90
54832;DHT22;40730;53.068;6.572;2022-09-13T05:58:33;16.60;99.90
54832;DHT22;40730;53.068;6.572;2022-09-13T06:01:03;16.60;99.90
54832;DHT22;40730;53.068;6.572;2022-09-13T06:03:28;16.60;99.90
54832;DHT22;40730;53.068;6.572;2022-09-13T06:05:55;16.60;99.90
54832;DHT22;40730;53.068;6.572;2022-09-13T06:08:22;16.50;99.90
54832;DHT22;40730;53.068;6.572;2022-09-13T06:13:20;16.50;99.90
54832;DHT22;40730;53.068;6.572;2022-09-13T06:15:46;16.50;99.90
54832;DHT22;40730;53.068;6.572;2022-09-13T06:18:11;16.60;99.90
54832;DHT22;40730;53.068;6.572;2022-09-13T06:20:37;16.60;99.90
54832;DHT22;40730;53.068;6.572;2022-09-13T06:23:02;16.60;99.90
54832;DHT22;40730;53.068;6.572;2022-09-13T06:25:28;16.60;99.90
54832;DHT22;40730;53.068;6.572;2022-09-13T06:27:53;16.60;99.90
54832;DHT22;40730;53.068;6.572;2022-09-13T06:30:19;16.60;99.90
54832;DHT22;40730;53.068;6.572;2022-09-13T06:32:45;16.70;99.90
54832;DHT22;40730;53.068;6.572;2022-09-13T06:35:10;16.80;99.90
54832;DHT22;40730;53.068;6.572;2022-09-13T06:37:36;16.70;99.90
54832;DHT22;40730;53.068;6.572;2022-09-13T06:40:01;16.80;99.90
54832;DHT22;40730;53.068;6.572;2022-09-13T06:42:28;16.80;99.90
54832;DHT22;40730;53.068;6.572;2022-09-13T06:44:54;16.90;99.90
54832;DHT22;40730;53.068;6.572;2022-09-13T06:47:19;16.90;99.90
54832;DHT22;40730;53.068;6.572;2022-09-13T06:49:45;17.00;99.90
54832;DHT22;40730;53.068;6.572;2022-09-13T06:52:11;17.00;99.90
54832;DHT22;40730;53.068;6.572;2022-09-13T06:54:36;17.10;99.90
54832;DHT22;40730;53.068;6.572;2022-09-13T06:57:02;17.10;99.90
54832;DHT22;40730;53.068;6.572;2022-09-13T06:59:27;17.10;99.90
54832;DHT22;40730;53.068;6.572;2022-09-13T07:01:53;17.10;99.90
54832;DHT22;40730;53.068;6.572;2022-09-13T07:04:18;17.20;99.90
54832;DHT22;40730;53.068;6.572;2022-09-13T07:06:46;17.30;99.90
54832;DHT22;40730;53.068;6.572;2022-09-13T07:09:19;17.40;99.90
54832;DHT22;40730;53.068;6.572;2022-09-13T07:11:46;17.50;99.90
54832;DHT22;40730;53.068;6.572;2022-09-13T07:14:21;17.70;99.90
54832;DHT22;40730;53.068;6.572;2022-09-13T07:16:47;17.70;99.90
54832;DHT22;40730;53.068;6.572;2022-09-13T07:19:15;17.70;99.90
54832;DHT22;40730;53.068;6.572;2022-09-13T07:21:41;17.80;99.90
54832;DHT22;40730;53.068;6.572;2022-09-13T07:24:07;17.90;99.90
54832;DHT22;40730;53.068;6.572;2022-09-13T07:26:33;17.90;99.90
54832;DHT22;40730;53.068;6.572;2022-09-13T07:29:01;18.00;99.90
54832;DHT22;40730;53.068;6.572;2022-09-13T07:31:29;18.20;99.90
54832;DHT22;40730;53.068;6.572;2022-09-13T07:34:01;18.30;99.90
54832;DHT22;40730;53.068;6.572;2022-09-13T07:36:28;18.30;99.90
54832;DHT22;40730;53.068;6.572;2022-09-13T07:38:54;18.20;99.90
54832;DHT22;40730;53.068;6.572;2022-09-13T07:41:21;18.30;99.90
54832;DHT22;40730;53.068;6.572;2022-09-13T07:43:47;18.60;99.90
54832;DHT22;40730;53.068;6.572;2022-09-13T07:46:15;18.50;99.90
54832;DHT22;40730;53.068;6.572;2022-09-13T07:48:43;18.70;99.90
54832;DHT22;40730;53.068;6.572;2022-09-13T07:51:12;18.90;99.90
54832;DHT22;40730;53.068;6.572;2022-09-13T07:53:39;19.00;99.90
54832;DHT22;40730;53.068;6.572;2022-09-13T07:56:10;19.10;99.90
54832;DHT22;40730;53.068;6.572;2022-09-13T07:58:38;19.20;99.90
54832;DHT22;40730;53.068;6.572;2022-09-13T08:01:14;19.30;99.90
54832;DHT22;40730;53.068;6.572;2022-09-13T08:03:40;19.20;99.90
54832;DHT22;40730;53.068;6.572;2022-09-13T08:06:06;19.00;99.90
54832;DHT22;40730;53.068;6.572;2022-09-13T08:08:33;19.00;99.90
54832;DHT22;40730;53.068;6.572;2022-09-13T08:10:59;19.10;99.90
54832;DHT22;40730;53.068;6.572;2022-09-13T08:13:25;19.30;99.90
54832;DHT22;40730;53.068;6.572;2022-09-13T08:15:51;19.50;99.90
54832;DHT22;40730;53.068;6.572;2022-09-13T08:18:18;19.90;99.90
54832;DHT22;40730;53.068;6.572;2022-09-13T08:20:44;20.10;99.90
54832;DHT22;40730;53.068;6.572;2022-09-13T08:23:11;20.30;99.90
54832;DHT22;40730;53.068;6.572;2022-09-13T08:25:37;20.50;99.90
54832;DHT22;40730;53.068;6.572;2022-09-13T08:28:14;20.70;99.90
54832;DHT22;40730;53.068;6.572;2022-09-13T08:30:40;20.90;99.90
54832;DHT22;40730;53.068;6.572;2022-09-13T08:33:08;21.20;99.90
54832;DHT22;40730;53.068;6.572;2022-09-13T08:35:34;21.40;99.90
54832;DHT22;40730;53.068;6.572;2022-09-13T08:37:59;21.60;99.90
54832;DHT22;40730;53.068;6.572;2022-09-13T08:40:29;21.50;99.90
54832;DHT22;40730;53.068;6.572;2022-09-13T08:43:24;21.00;99.90
54832;DHT22;40730;53.068;6.572;2022-09-13T08:46:27;20.90;99.90
54832;DHT22;40730;53.068;6.572;2022-09-13T08:49:03;21.00;99.90
54832;DHT22;40730;53.068;6.572;2022-09-13T08:51:39;21.00;99.90
54832;DHT22;40730;53.068;6.572;2022-09-13T08:54:10;21.40;99.90
54832;DHT22;40730;53.068;6.572;2022-09-13T09:04:56;21.40;99.90
54832;DHT22;40730;53.068;6.572;2022-09-13T09:07:28;21.60;99.90
54832;DHT22;40730;53.068;6.572;2022-09-13T09:10:04;21.80;99.90
54832;DHT22;40730;53.068;6.572;2022-09-13T09:12:43;21.30;99.90
54832;DHT22;40730;53.068;6.572;2022-09-13T09:15:21;21.30;99.90
54832;DHT22;40730;53.068;6.572;2022-09-13T09:22:49;23.20;99.80
54832;DHT22;40730;53.068;6.572;2022-09-13T09:25:15;23.70;95.80
54832;DHT22;40730;53.068;6.572;2022-09-13T09:27:41;24.30;91.20
54832;DHT22;40730;53.068;6.572;2022-09-13T09:30:12;24.50;86.00
54832;DHT22;40730;53.068;6.572;2022-09-13T09:40:41;24.80;85.30
54832;DHT22;40730;53.068;6.572;2022-09-13T09:43:18;23.90;83.20
54832;DHT22;40730;53.068;6.572;2022-09-13T09:45:45;22.90;86.10
54832;DHT22;40730;53.068;6.572;2022-09-13T09:48:19;22.10;88.00
54832;DHT22;40730;53.068;6.572;2022-09-13T09:50:54;21.60;90.00
54832;DHT22;40730;53.068;6.572;2022-09-13T09:53:33;21.10;91.00
54832;DHT22;40730;53.068;6.572;2022-09-13T09:58:49;21.00;95.60
54832;DHT22;40730;53.068;6.572;2022-09-13T10:01:31;22.20;92.30
54832;DHT22;40730;53.068;6.572;2022-09-13T10:04:02;23.40;89.30
54832;DHT22;40730;53.068;6.572;2022-09-13T10:06:30;24.30;80.10
54832;DHT22;40730;53.068;6.572;2022-09-13T10:08:59;24.90;76.90
54832;DHT22;40730;53.068;6.572;2022-09-13T10:11:39;25.00;72.70
54832;DHT22;40730;53.068;6.572;2022-09-13T10:17:43;23.10;73.90
54832;DHT22;40730;53.068;6.572;2022-09-13T10:19:52;22.20;76.30
54832;DHT22;40730;53.068;6.572;2022-09-13T10:22:19;22.20;77.80
54832;DHT22;40730;53.068;6.572;2022-09-13T10:24:45;22.80;76.20
54832;DHT22;40730;53.068;6.572;2022-09-13T10:27:34;23.80;76.80
54832;DHT22;40730;53.068;6.572;2022-09-13T10:30:03;24.90;74.00
54832;DHT22;40730;53.068;6.572;2022-09-13T10:32:31;24.80;71.40
54832;DHT22;40730;53.068;6.572;2022-09-13T10:35:14;23.90;70.60
54832;DHT22;40730;53.068;6.572;2022-09-13T10:37:43;23.00;72.60
54832;DHT22;40730;53.068;6.572;2022-09-13T10:40:18;22.80;73.90
54832;DHT22;40730;53.068;6.572;2022-09-13T10:42:56;23.20;74.80
54832;DHT22;40730;53.068;6.572;2022-09-13T10:45:27;24.40;73.90
54832;DHT22;40730;53.068;6.572;2022-09-13T10:48:15;25.50;71.50
54832;DHT22;40730;53.068;6.572;2022-09-13T10:51:05;26.30;70.90
54832;DHT22;40730;53.068;6.572;2022-09-13T10:53:33;27.20;67.60
54832;DHT22;40730;53.068;6.572;2022-09-13T10:55:59;27.40;65.40
54832;DHT22;40730;53.068;6.572;2022-09-13T10:58:24;26.40;66.00
54832;DHT22;40730;53.068;6.572;2022-09-13T11:01:15;24.90;68.00
54832;DHT22;40730;53.068;6.572;2022-09-13T11:04:06;23.70;73.10
54832;DHT22;40730;53.068;6.572;2022-09-13T11:06:58;23.70;75.10
54832;DHT22;40730;53.068;6.572;2022-09-13T11:09:35;24.80;74.00
54832;DHT22;40730;53.068;6.572;2022-09-13T11:18:39;27.00;63.10
54832;DHT22;40730;53.068;6.572;2022-09-13T11:34:55;24.80;62.00
54832;DHT22;40730;53.068;6.572;2022-09-13T11:37:40;23.50;64.70
54832;DHT22;40730;53.068;6.572;2022-09-13T11:42:59;25.00;63.20
54832;DHT22;40730;53.068;6.572;2022-09-13T11:45:29;25.90;59.60
54832;DHT22;40730;53.068;6.572;2022-09-13T11:48:18;26.40;59.20
54832;DHT22;40730;53.068;6.572;2022-09-13T11:56:06;27.80;57.00
54832;DHT22;40730;53.068;6.572;2022-09-13T11:58:44;27.50;56.30
54832;DHT22;40730;53.068;6.572;2022-09-13T12:01:16;26.60;57.40
54832;DHT22;40730;53.068;6.572;2022-09-13T12:06:22;26.60;58.40
54832;DHT22;40730;53.068;6.572;2022-09-13T12:08:54;26.70;59.20
54832;DHT22;40730;53.068;6.572;2022-09-13T12:11:25;27.20;58.50
54832;DHT22;40730;53.068;6.572;2022-09-13T12:13:57;27.60;57.80
54832;DHT22;40730;53.068;6.572;2022-09-13T12:16:40;27.10;56.90
54832;DHT22;40730;53.068;6.572;2022-09-13T12:21:40;26.70;58.10
54832;DHT22;40730;53.068;6.572;2022-09-13T12:24:31;26.90;57.50
54832;DHT22;40730;53.068;6.572;2022-09-13T12:27:05;27.20;59.70
54832;DHT22;40730;53.068;6.572;2022-09-13T12:32:39;27.20;55.90
54832;DHT22;40730;53.068;6.572;2022-09-13T12:35:08;26.40;57.70
54832;DHT22;40730;53.068;6.572;2022-09-13T12:40:09;26.60;57.80
54832;DHT22;40730;53.068;6.572;2022-09-13T12:46:05;26.10;59.60
54832;DHT22;40730;53.068;6.572;2022-09-13T12:56:51;25.00;63.30
54832;DHT22;40730;53.068;6.572;2022-09-13T13:02:33;23.80;66.10
54832;DHT22;40730;53.068;6.572;2022-09-13T13:05:16;24.30;64.90
54832;DHT22;40730;53.068;6.572;2022-09-13T13:10:42;24.60;62.70
54832;DHT22;40730;53.068;6.572;2022-09-13T13:13:17;24.10;65.00
54832;DHT22;40730;53.068;6.572;2022-09-13T13:23:38;22.80;67.70
54832;DHT22;40730;53.068;6.572;2022-09-13T13:46:41;25.30;65.50
54832;DHT22;40730;53.068;6.572;2022-09-13T13:58:03;23.20;66.30
54832;DHT22;40730;53.068;6.572;2022-09-13T14:00:32;22.30;69.30
54832;DHT22;40730;53.068;6.572;2022-09-13T14:03:19;22.00;70.10
54832;DHT22;40730;53.068;6.572;2022-09-13T14:14:17;21.50;71.60
54832;DHT22;40730;53.068;6.572;2022-09-13T14:19:45;21.60;71.20
54832;DHT22;40730;53.068;6.572;2022-09-13T14:22:27;21.50;71.50
54832;DHT22;40730;53.068;6.572;2022-09-13T14:24:55;21.20;72.80
54832;DHT22;40730;53.068;6.572;2022-09-13T14:27:24;21.00;72.50
54832;DHT22;40730;53.068;6.572;2022-09-13T14:29:56;20.90;73.50
54832;DHT22;40730;53.068;6.572;2022-09-13T14:32:28;20.60;73.40
54832;DHT22;40730;53.068;6.572;2022-09-13T14:34:59;20.40;75.60
54832;DHT22;40730;53.068;6.572;2022-09-13T14:37:35;20.30;75.50
54832;DHT22;40730;53.068;6.572;2022-09-13T14:42:38;20.00;74.90
54832;DHT22;40730;53.068;6.572;2022-09-13T14:45:04;19.90;75.60
54832;DHT22;40730;53.068;6.572;2022-09-13T14:47:36;19.80;76.10
54832;DHT22;40730;53.068;6.572;2022-09-13T14:50:18;19.70;76.10
54832;DHT22;40730;53.068;6.572;2022-09-13T14:52:52;19.70;76.50
54832;DHT22;40730;53.068;6.572;2022-09-13T14:55:30;19.60;77.50
54832;DHT22;40730;53.068;6.572;2022-09-13T14:58:02;19.70;79.00
54832;DHT22;40730;53.068;6.572;2022-09-13T15:00:32;19.70;79.70
54832;DHT22;40730;53.068;6.572;2022-09-13T15:03:01;19.70;79.10
54832;DHT22;40730;53.068;6.572;2022-09-13T15:05:30;19.60;79.00
54832;DHT22;40730;53.068;6.572;2022-09-13T15:07:57;19.50;79.60
54832;DHT22;40730;53.068;6.572;2022-09-13T15:10:24;19.50;80.30
54832;DHT22;40730;53.068;6.572;2022-09-13T15:15:40;19.10;80.40
54832;DHT22;40730;53.068;6.572;2022-09-13T15:20:49;18.90;83.30
54832;DHT22;40730;53.068;6.572;2022-09-13T15:23:26;18.90;84.20
54832;DHT22;40730;53.068;6.572;2022-09-13T15:26:00;18.80;84.30
54832;DHT22;40730;53.068;6.572;2022-09-13T15:28:32;18.80;85.20
54832;DHT22;40730;53.068;6.572;2022-09-13T15:30:59;18.80;85.90
54832;DHT22;40730;53.068;6.572;2022-09-13T15:33:30;18.80;86.20
54832;DHT22;40730;53.068;6.572;2022-09-13T15:41:36;18.80;86.40
54832;DHT22;40730;53.068;6.572;2022-09-13T15:44:05;18.90;85.50
54832;DHT22;40730;53.068;6.572;2022-09-13T15:46:31;18.90;85.30
54832;DHT22;40730;53.068;6.572;2022-09-13T15:49:01;18.80;85.10
54832;DHT22;40730;53.068;6.572;2022-09-13T15:51:27;18.70;85.50
54832;DHT22;40730;53.068;6.572;2022-09-13T15:53:53;18.60;86.50
54832;DHT22;40730;53.068;6.572;2022-09-13T15:56:21;18.60;87.40
54832;DHT22;40730;53.068;6.572;2022-09-13T15:58:47;18.50;87.10
54832;DHT22;40730;53.068;6.572;2022-09-13T16:01:14;18.50;87.80
54832;DHT22;40730;53.068;6.572;2022-09-13T16:03:41;18.40;88.20
54832;DHT22;40730;53.068;6.572;2022-09-13T16:06:08;18.40;87.70
54832;DHT22;40730;53.068;6.572;2022-09-13T16:08:38;18.30;87.80
54832;DHT22;40730;53.068;6.572;2022-09-13T16:11:04;18.30;88.90
54832;DHT22;40730;53.068;6.572;2022-09-13T16:13:31;18.30;88.70
54832;DHT22;40730;53.068;6.572;2022-09-13T16:15:56;18.20;88.60
54832;DHT22;40730;53.068;6.572;2022-09-13T16:18:22;18.10;90.00
54832;DHT22;40730;53.068;6.572;2022-09-13T16:20:48;18.00;90.20
54832;DHT22;40730;53.068;6.572;2022-09-13T16:23:14;17.80;90.30
54832;DHT22;40730;53.068;6.572;2022-09-13T16:25:40;17.80;90.80
54832;DHT22;40730;53.068;6.572;2022-09-13T16:28:06;17.70;91.20
54832;DHT22;40730;53.068;6.572;2022-09-13T16:30:33;17.60;91.20
54832;DHT22;40730;53.068;6.572;2022-09-13T16:32:59;17.70;91.20
54832;DHT22;40730;53.068;6.572;2022-09-13T16:35:29;17.70;90.90
54832;DHT22;40730;53.068;6.572;2022-09-13T16:37:56;17.80;90.60
54832;DHT22;40730;53.068;6.572;2022-09-13T16:40:21;17.80;90.90
54832;DHT22;40730;53.068;6.572;2022-09-13T16:42:48;17.80;91.50
54832;DHT22;40730;53.068;6.572;2022-09-13T16:45:13;17.70;91.70
54832;DHT22;40730;53.068;6.572;2022-09-13T16:47:39;17.70;92.10
54832;DHT22;40730;53.068;6.572;2022-09-13T16:50:06;17.60;92.10
54832;DHT22;40730;53.068;6.572;2022-09-13T16:52:32;17.50;92.40
54832;DHT22;40730;53.068;6.572;2022-09-13T16:54:58;17.40;92.70
54832;DHT22;40730;53.068;6.572;2022-09-13T16:57:24;17.40;93.00
54832;DHT22;40730;53.068;6.572;2022-09-13T16:59:51;17.30;93.70
54832;DHT22;40730;53.068;6.572;2022-09-13T17:02:18;17.20;94.30
54832;DHT22;40730;53.068;6.572;2022-09-13T17:04:44;17.10;94.80
54832;DHT22;40730;53.068;6.572;2022-09-13T17:07:11;17.10;95.70
54832;DHT22;40730;53.068;6.572;2022-09-13T17:09:37;17.00;96.40
54832;DHT22;40730;53.068;6.572;2022-09-13T17:12:09;16.90;97.10
54832;DHT22;40730;53.068;6.572;2022-09-13T17:14:35;16.90;97.60
54832;DHT22;40730;53.068;6.572;2022-09-13T17:17:00;16.80;98.10
54832;DHT22;40730;53.068;6.572;2022-09-13T17:19:30;16.80;98.70
54832;DHT22;40730;53.068;6.572;2022-09-13T17:21:58;16.70;99.20
54832;DHT22;40730;53.068;6.572;2022-09-13T17:24:25;16.70;99.60
54832;DHT22;40730;53.068;6.572;2022-09-13T17:26:52;16.60;99.90
54832;DHT22;40730;53.068;6.572;2022-09-13T17:29:18;16.60;99.90
54832;DHT22;40730;53.068;6.572;2022-09-13T17:31:44;16.50;99.90
54832;DHT22;40730;53.068;6.572;2022-09-13T17:34:11;16.40;99.90
54832;DHT22;40730;53.068;6.572;2022-09-13T17:36:41;16.40;99.90
54832;DHT22;40730;53.068;6.572;2022-09-13T17:39:07;16.30;99.90
54832;DHT22;40730;53.068;6.572;2022-09-13T17:41:33;16.30;99.90
54832;DHT22;40730;53.068;6.572;2022-09-13T17:43:59;16.20;99.90
54832;DHT22;40730;53.068;6.572;2022-09-13T17:46:26;16.20;99.90
54832;DHT22;40730;53.068;6.572;2022-09-13T17:48:54;16.10;99.90
54832;DHT22;40730;53.068;6.572;2022-09-13T17:51:22;16.10;99.90
54832;DHT22;40730;53.068;6.572;2022-09-13T17:54:24;16.10;99.90
54832;DHT22;40730;53.068;6.572;2022-09-13T18:38:50;14.90;99.90
54832;DHT22;40730;53.068;6.572;2022-09-13T18:42:05;15.10;99.90
54832;DHT22;40730;53.068;6.572;2022-09-13T18:44:40;14.40;99.90
54832;DHT22;40730;53.068;6.572;2022-09-13T18:47:32;14.50;99.90
54832;DHT22;40730;53.068;6.572;2022-09-13T18:50:53;14.30;99.90
54832;DHT22;40730;53.068;6.572;2022-09-13T18:53:43;14.20;99.90
54832;DHT22;40730;53.068;6.572;2022-09-13T18:56:40;14.20;99.90
54832;DHT22;40730;53.068;6.572;2022-09-13T18:59:06;13.90;99.90
54832;DHT22;40730;53.068;6.572;2022-09-13T19:10:11;13.60;99.90
54832;DHT22;40730;53.068;6.572;2022-09-13T19:20:35;13.50;99.90
54832;DHT22;40730;53.068;6.572;2022-09-13T19:23:07;13.60;99.90
54832;DHT22;40730;53.068;6.572;2022-09-13T19:25:40;13.50;99.90
54832;DHT22;40730;53.068;6.572;2022-09-13T19:55:08;13.10;99.90
54832;DHT22;40730;53.068;6.572;2022-09-13T20:13:14;12.70;99.90
54832;DHT22;40730;53.068;6.572;2022-09-13T20:19:57;12.60;99.90
54832;DHT22;40730;53.068;6.572;2022-09-13T20:22:30;12.40;99.90
54832;DHT22;40730;53.068;6.572;2022-09-13T20:25:00;12.50;99.90
54832;DHT22;40730;53.068;6.572;2022-09-13T20:27:38;12.50;99.90
54832;DHT22;40730;53.068;6.572;2022-09-13T20:30:20;12.20;99.90
54832;DHT22;40730;53.068;6.572;2022-09-13T20:32:59;12.50;99.90
54832;DHT22;40730;53.068;6.572;2022-09-13T20:36:04;12.30;99.90
54832;DHT22;40730;53.068;6.572;2022-09-13T20:39:08;12.30;99.90
54832;DHT22;40730;53.068;6.572;2022-09-13T20:42:40;12.30;99.90
54832;DHT22;40730;53.068;6.572;2022-09-13T20:45:29;12.50;99.90
54832;DHT22;40730;53.068;6.572;2022-09-13T20:48:19;12.50;99.90
54832;DHT22;40730;53.068;6.572;2022-09-13T20:51:19;12.40;99.90
54832;DHT22;40730;53.068;6.572;2022-09-13T20:54:18;12.40;99.90
54832;DHT22;40730;53.068;6.572;2022-09-13T20:57:01;12.40;99.90
54832;DHT22;40730;53.068;6.572;2022-09-13T21:00:10;12.50;99.90